You are listening to:
ZBAA Tower - Beijing, China

ZBAA 020300Z 32003MPS 260V010 CAVOK 18/M14 Q1024 NOSIG

If stream doesn't start automatically press the play button
If stream stops then reload player then press play